Time;durP1;ratioP1;P1;durP2;ratioP2;P2;SDS_P1;SDS_P2;PMS_P1;PMS_P2;Temp;Humidity;BMP_temperature;BMP_pressure;BME280_temperature;BME280_humidity;BME280_pressure;Samples;Min_cycle;Max_cycle;Signal;HPM_P1;HPM_P2
2022/11/13 00:01:17;;;;;;;;;;;;;;;3.34;100.00;102744.78;2084270;28;20807;-72
2022/11/13 00:02:37;;;;;;;;;;;;;;;3.39;100.00;102740.53;2083088;28;19921;-75
2022/11/13 00:03:58;;;;;;;;;;;;;;;3.35;100.00;102743.91;2085112;28;19917;-72
2022/11/13 00:05:18;;;;;;;;;;;;;;;3.39;100.00;102745.84;2088268;28;20672;-71
2022/11/13 00:06:38;;;;;;;;;;;;;;;3.45;100.00;102742.50;2089044;28;19954;-77
2022/11/13 00:07:58;;;;;;;;;;;;;;;3.54;100.00;102739.28;2084718;28;19925;-74
2022/11/13 00:09:19;;;;;;;;;;;;;;;3.64;100.00;102741.38;2089468;28;19921;-72
2022/11/13 00:10:39;;;;;;;;;;;;;;;3.66;100.00;102750.31;2088486;28;19917;-76
2022/11/13 00:11:59;;;;;;;;;;;;;;;3.64;100.00;102744.03;2089100;28;20824;-78
2022/11/13 00:13:19;;;;;;;;;;;;;;;3.83;100.00;102748.22;2088978;28;19925;-79
2022/11/13 00:14:43;;;;;;;;;;;;;;;3.79;100.00;102743.69;2089184;28;20804;-78
2022/11/13 00:16:06;;;;;;;;;;;;;;;3.81;100.00;102739.34;2089210;28;21238;-79
2022/11/13 00:17:29;;;;;;;;;;;;;;;3.79;100.00;102741.94;2089069;28;19917;-79
2022/11/13 00:18:49;;;;;;;;;;;;;;;3.86;100.00;102734.16;2088387;28;19921;-78
2022/11/13 00:20:10;;;;;;;;;;;;;;;3.83;100.00;102734.97;2089112;28;20960;-79
2022/11/13 00:21:30;;;;;;;;;;;;;;;3.84;100.00;102728.84;2089034;28;19925;-79
2022/11/13 00:22:50;;;;;;;;;;;;;;;3.87;100.00;102726.28;2089241;28;19921;-79
2022/11/13 00:24:11;;;;;;;;;;;;;;;3.98;100.00;102732.84;2088314;28;20746;-79
2022/11/13 00:25:34;;;;;;;;;;;;;;;4.02;100.00;102725.91;2088086;28;20055;-79
2022/11/13 00:26:54;;;;;;;;;;;;;;;3.98;100.00;102721.34;2089031;28;19979;-79
2022/11/13 00:28:14;;;;;;;;;;;;;;;4.01;100.00;102721.44;2089073;28;19925;-79
2022/11/13 00:29:34;;;;;;;;;;;;;;;3.95;100.00;102722.16;2088448;28;19917;-79
2022/11/13 00:30:59;;;;;;;;;;;;;;;3.91;100.00;102719.31;2089430;28;19917;-79
2022/11/13 00:32:19;;;;;;;;;;;;;;;3.86;100.00;102728.88;2088574;28;20039;-79
2022/11/13 00:33:40;;;;;;;;;;;;;;;3.79;100.00;102723.38;2088078;28;19925;-78
2022/11/13 00:35:20;;;;;;;;;;;;;;;3.73;100.00;102731.13;2087945;28;19929;-78
2022/11/13 00:36:43;;;;;;;;;;;;;;;3.65;100.00;102727.31;2089317;28;19917;-79
2022/11/13 00:38:03;;;;;;;;;;;;;;;3.63;100.00;102726.34;2088650;28;20700;-78
2022/11/13 00:39:23;;;;;;;;;;;;;;;3.59;100.00;102727.09;2088383;28;19979;-79
2022/11/13 00:40:43;;;;;;;;;;;;;;;3.52;100.00;102725.09;2089200;28;19924;-79
2022/11/13 00:42:04;;;;;;;;;;;;;;;3.45;100.00;102716.03;2089022;28;19984;-78
2022/11/13 00:43:25;;;;;;;;;;;;;;;3.41;100.00;102719.38;2088687;28;20694;-79
2022/11/13 00:44:45;;;;;;;;;;;;;;;3.38;100.00;102724.59;2088410;28;19976;-79
2022/11/13 00:46:06;;;;;;;;;;;;;;;3.35;100.00;102722.72;2088819;28;19921;-78
2022/11/13 00:47:26;;;;;;;;;;;;;;;3.34;100.00;102718.28;2088748;28;19925;-79
2022/11/13 00:48:46;;;;;;;;;;;;;;;3.36;100.00;102718.34;2088145;28;19917;-79
2022/11/13 00:50:06;;;;;;;;;;;;;;;3.34;100.00;102718.28;2088913;28;20783;-79
2022/11/13 00:51:29;;;;;;;;;;;;;;;3.34;100.00;102722.66;2089699;28;19925;-79
2022/11/13 00:52:49;;;;;;;;;;;;;;;3.32;100.00;102713.78;2088950;28;19917;-78
2022/11/13 00:54:09;;;;;;;;;;;;;;;3.32;100.00;102717.34;2089127;28;20675;-78
2022/11/13 00:55:29;;;;;;;;;;;;;;;3.37;100.00;102718.38;2088233;28;20067;-79
2022/11/13 00:56:50;;;;;;;;;;;;;;;3.34;100.00;102715.66;2088708;28;19921;-79
2022/11/13 00:58:11;;;;;;;;;;;;;;;3.34;100.00;102718.28;2084653;28;19925;-79
2022/11/13 00:59:32;;;;;;;;;;;;;;;3.35;100.00;102712.13;2087815;28;20940;-79
2022/11/13 01:00:52;;;;;;;;;;;;;;;3.34;100.00;102717.38;2087929;28;19921;-79
2022/11/13 01:02:14;;;;;;;;;;;;;;;3.33;100.00;102723.53;2089311;28;19917;-79
2022/11/13 01:03:34;;;;;;;;;;;;;;;3.31;100.00;102720.81;2088022;28;19917;-79
2022/11/13 01:04:54;;;;;;;;;;;;;;;3.29;100.00;102719.88;2089144;28;20680;-79
2022/11/13 01:06:25;;;;;;;;;;;;;;;3.27;100.00;102716.28;2088261;28;20759;-79
2022/11/13 01:07:45;;;;;;;;;;;;;;;3.26;100.00;102722.41;2088740;28;19925;-79
2022/11/13 01:09:05;;;;;;;;;;;;;;;3.29;100.00;102725.16;2088710;28;19921;-80
2022/11/13 01:10:25;;;;;;;;;;;;;;;3.33;100.00;102723.53;2088880;28;20737;-80
2022/11/13 01:11:45;;;;;;;;;;;;;;;3.41;100.00;102720.31;2088965;28;19971;-79
2022/11/13 01:13:08;;;;;;;;;;;;;;;3.53;100.00;102729.53;2087863;28;19929;-80
2022/11/13 01:14:28;;;;;;;;;;;;;;;3.49;100.00;102722.34;2088531;28;19921;-80
2022/11/13 01:15:48;;;;;;;;;;;;;;;3.48;100.00;102720.50;2087957;28;19921;-80
2022/11/13 01:17:08;;;;;;;;;;;;;;;3.48;100.00;102723.16;2087591;28;19957;-79
2022/11/13 01:18:28;;;;;;;;;;;;;;;3.52;100.00;102717.16;2088674;28;19921;-80
2022/11/13 01:19:49;;;;;;;;;;;;;;;3.49;100.00;102719.69;2088913;28;21141;-81
2022/11/13 01:21:21;;;;;;;;;;;;;;;3.48;100.00;102715.22;2088185;28;20813;-78
2022/11/13 01:22:41;;;;;;;;;;;;;;;3.51;100.00;102713.59;2088900;28;19925;-80
2022/11/13 01:24:01;;;;;;;;;;;;;;;3.52;100.00;102707.44;2087824;28;19913;-80
2022/11/13 01:25:22;;;;;;;;;;;;;;;3.58;100.00;102709.41;2088673;28;19925;-80
2022/11/13 01:26:43;;;;;;;;;;;;;;;3.63;100.00;102711.34;2088310;28;19932;-81
2022/11/13 01:28:03;;;;;;;;;;;;;;;3.56;100.00;102705.81;2088490;28;20913;-80
2022/11/13 01:29:23;;;;;;;;;;;;;;;3.50;100.00;102701.19;2091534;28;21242;-80
2022/11/13 01:30:43;;;;;;;;;;;;;;;3.47;100.00;102703.72;2089027;28;19917;-79
2022/11/13 01:32:04;;;;;;;;;;;;;;;3.51;100.00;102699.44;2088157;28;19920;-81
2022/11/13 01:33:24;;;;;;;;;;;;;;;3.58;100.00;102698.81;2089203;28;19921;-80
2022/11/13 01:34:44;;;;;;;;;;;;;;;3.62;100.00;102703.34;2088575;28;19921;-81
2022/11/13 01:36:09;;;;;;;;;;;;;;;3.57;100.00;102702.28;2088460;28;19976;-80
2022/11/13 01:37:29;;;;;;;;;;;;;;;3.56;100.00;102697.88;2088977;28;19917;-81
2022/11/13 01:38:50;;;;;;;;;;;;;;;3.52;100.00;102695.97;2088994;28;20063;-81
2022/11/13 01:40:12;;;;;;;;;;;;;;;3.48;100.00;102697.56;2088056;28;20071;-80
2022/11/13 01:41:33;;;;;;;;;;;;;;;3.48;100.00;102700.22;2088946;28;19987;-81
2022/11/13 01:42:53;;;;;;;;;;;;;;;3.47;100.00;102684.31;2088351;28;20775;-81
2022/11/13 01:44:16;;;;;;;;;;;;;;;3.47;100.00;102686.97;2088163;28;19917;-81
2022/11/13 01:45:58;;;;;;;;;;;;;;;3.51;100.00;102689.75;2089056;28;19921;-81
2022/11/13 01:47:20;;;;;;;;;;;;;;;3.55;100.00;102688.09;2088905;28;19972;-82
2022/11/13 01:48:48;;;;;;;;;;;;;;;3.59;100.00;102682.09;2089440;28;19995;-81
2022/11/13 01:50:13;;;;;;;;;;;;;;;3.67;100.00;102674.38;2088195;28;21050;-79
2022/11/13 01:51:35;;;;;;;;;;;;;;;3.70;100.00;102683.34;2088831;28;19925;-82
2022/11/13 01:52:55;;;;;;;;;;;;;;;3.75;100.00;102673.81;2088518;28;19921;-80
2022/11/13 01:54:20;;;;;;;;;;;;;;;3.81;100.00;102668.69;2089574;28;19925;-80
2022/11/13 01:55:40;;;;;;;;;;;;;;;3.90;100.00;102661.91;2089706;28;20802;-80
2022/11/13 01:57:04;;;;;;;;;;;;;;;3.90;100.00;102664.56;2090188;28;19921;-79
2022/11/13 01:58:24;;;;;;;;;;;;;;;3.92;100.00;102654.91;2090216;28;20071;-80
2022/11/13 01:59:50;;;;;;;;;;;;;;;3.98;100.00;102657.72;2092377;28;19964;-79
2022/11/13 02:01:10;;;;;;;;;;;;;;;3.96;100.00;102662.09;2089646;28;20066;-80
2022/11/13 02:02:31;;;;;;;;;;;;;;;3.99;100.00;102656.91;2089797;28;21007;-79
2022/11/13 02:03:51;;;;;;;;;;;;;;;3.98;100.00;102661.31;2089678;28;19917;-80
2022/11/13 02:05:11;;;;;;;;;;;;;;;3.98;100.00;102660.38;2089758;28;19921;-80
2022/11/13 02:06:39;;;;;;;;;;;;;;;3.96;100.00;102662.97;2090391;28;19983;-80
2022/11/13 02:08:00;;;;;;;;;;;;;;;4.01;100.00;102650.78;2089298;28;19921;-80
2022/11/13 02:09:25;;;;;;;;;;;;;;;3.98;100.00;102647.13;2090191;28;19917;-80
2022/11/13 02:10:46;;;;;;;;;;;;;;;4.06;100.00;102652.69;2090179;28;19925;-80
2022/11/13 02:12:09;;;;;;;;;;;;;;;4.03;100.00;102652.59;2089985;28;19920;-80
2022/11/13 02:13:30;;;;;;;;;;;;;;;4.06;100.00;102653.59;2089538;28;19920;-80
2022/11/13 02:14:53;;;;;;;;;;;;;;;4.03;100.00;102652.59;2090214;28;20841;-80
2022/11/13 02:16:15;;;;;;;;;;;;;;;4.01;100.00;102650.78;2089100;28;19956;-79
2022/11/13 02:17:44;;;;;;;;;;;;;;;4.03;100.00;102648.19;2090088;28;19920;-81
2022/11/13 02:19:20;;;;;;;;;;;;;;;4.07;100.00;102646.53;2089728;28;19920;-80
2022/11/13 02:20:55;;;;;;;;;;;;;;;4.08;100.00;102649.22;2090228;28;19917;-81
2022/11/13 02:22:14;;;;;;;;;;;;;;;4.10;100.00;102642.22;2089915;28;19921;-80
2022/11/13 02:23:47;;;;;;;;;;;;;;;4.07;100.00;102650.06;2089959;28;19980;-80
2022/11/13 02:25:09;;;;;;;;;;;;;;;4.18;100.00;102638.06;2089012;28;19960;-79
2022/11/13 02:26:30;;;;;;;;;;;;;;;4.14;100.00;102640.56;2089515;28;20059;-79
2022/11/13 02:27:50;;;;;;;;;;;;;;;4.14;100.00;102637.91;2090170;28;19917;-80
2022/11/13 02:29:11;;;;;;;;;;;;;;;4.21;100.00;102642.56;2089718;28;19990;-80
2022/11/13 02:30:34;;;;;;;;;;;;;;;4.27;100.00;102639.19;2092229;28;19925;-80
2022/11/13 02:31:54;;;;;;;;;;;;;;;4.27;100.00;102637.47;2089195;28;20059;-80
2022/11/13 02:33:27;;;;;;;;;;;;;;;4.24;100.00;102641.78;2089173;28;19925;-80
2022/11/13 02:34:48;;;;;;;;;;;;;;;4.23;100.00;102635.53;2088173;28;20932;-80
2022/11/13 02:36:10;;;;;;;;;;;;;;;4.27;100.00;102636.53;2089762;28;20971;-80
2022/11/13 02:37:30;;;;;;;;;;;;;;;4.33;100.00;102642.94;2088579;28;19925;-80
2022/11/13 02:38:55;;;;;;;;;;;;;;;4.29;100.00;102637.47;2086245;28;19925;-79
2022/11/13 02:40:16;;;;;;;;;;;;;;;4.26;100.00;102642.72;2086689;28;19921;-81
2022/11/13 02:41:38;;;;;;;;;;;;;;;4.24;100.00;102631.16;2089285;28;19929;-80
2022/11/13 02:42:59;;;;;;;;;;;;;;;4.24;100.00;102639.13;2090594;28;19983;-80
2022/11/13 02:44:19;;;;;;;;;;;;;;;4.20;100.00;102639.00;2091070;28;19921;-80
2022/11/13 02:45:39;;;;;;;;;;;;;;;4.16;100.00;102633.56;2090929;28;20043;-81
2022/11/13 02:46:59;;;;;;;;;;;;;;;4.19;100.00;102634.53;2091161;28;19921;-80
2022/11/13 02:48:19;;;;;;;;;;;;;;;4.14;100.00;102629.97;2092116;28;19921;-81
2022/11/13 02:49:42;;;;;;;;;;;;;;;4.17;100.00;102638.91;2090654;28;19920;-80
2022/11/13 02:51:03;;;;;;;;;;;;;;;4.14;100.00;102635.25;2090885;28;19921;-79
2022/11/13 02:52:23;;;;;;;;;;;;;;;4.09;100.00;102635.13;2091361;28;19917;-80
2022/11/13 02:53:43;;;;;;;;;;;;;;;4.04;100.00;102630.50;2090547;28;20656;-81
2022/11/13 02:55:04;;;;;;;;;;;;;;;4.00;100.00;102633.09;2089970;28;19925;-80
2022/11/13 02:56:25;;;;;;;;;;;;;;;3.97;100.00;102634.75;2089668;28;19924;-79
2022/11/13 02:57:45;;;;;;;;;;;;;;;4.05;100.00;102635.88;2088531;28;20805;-80
2022/11/13 02:59:05;;;;;;;;;;;;;;;4.03;100.00;102639.34;2085339;28;19914;-79
2022/11/13 03:00:26;;;;;;;;;;;;;;;4.01;100.00;102641.94;2084539;28;19925;-80
2022/11/13 03:01:46;;;;;;;;;;;;;;;3.99;100.00;102641.00;2089503;28;19991;-81
2022/11/13 03:03:06;;;;;;;;;;;;;;;3.94;100.00;102632.88;2089252;28;20752;-79
2022/11/13 03:04:27;;;;;;;;;;;;;;;3.91;100.00;102639.84;2089559;28;20794;-80
2022/11/13 03:06:03;;;;;;;;;;;;;;;3.92;100.00;102634.59;2088965;28;20043;-79
2022/11/13 03:07:23;;;;;;;;;;;;;;;3.90;100.00;102625.69;2089875;28;19921;-79
2022/11/13 03:08:43;;;;;;;;;;;;;;;3.89;100.00;102628.28;2089749;28;19917;-78
2022/11/13 03:10:04;;;;;;;;;;;;;;;3.88;100.00;102626.50;2088928;28;19921;-79
2022/11/13 03:11:24;;;;;;;;;;;;;;;3.86;100.00;102629.09;2088760;28;20063;-79
2022/11/13 03:12:45;;;;;;;;;;;;;;;3.85;100.00;102626.41;2089074;28;20051;-79
2022/11/13 03:14:05;;;;;;;;;;;;;;;3.95;100.00;102625.84;2088241;28;20749;-79
2022/11/13 03:15:25;;;;;;;;;;;;;;;3.97;100.00;102611.78;2089665;28;19925;-79
2022/11/13 03:16:45;;;;;;;;;;;;;;;3.92;100.00;102618.69;2089769;28;19929;-79
2022/11/13 03:18:06;;;;;;;;;;;;;;;3.95;100.00;102618.78;2089632;28;20730;-78
2022/11/13 03:19:27;;;;;;;;;;;;;;;3.93;100.00;102624.88;2089511;28;19979;-78
2022/11/13 03:20:52;;;;;;;;;;;;;;;3.93;100.00;102619.56;2088580;28;19921;-78
2022/11/13 03:22:12;;;;;;;;;;;;;;;3.89;100.00;102618.59;2088856;28;19917;-78
2022/11/13 03:23:32;;;;;;;;;;;;;;;3.97;100.00;102626.81;2089166;28;19929;-79
2022/11/13 03:24:53;;;;;;;;;;;;;;;3.90;100.00;102623.03;2089201;28;19921;-79
2022/11/13 03:26:15;;;;;;;;;;;;;;;3.90;100.00;102614.22;2089034;28;19921;-80
2022/11/13 03:27:35;;;;;;;;;;;;;;;3.86;100.00;102617.59;2089321;28;19931;-80
2022/11/13 03:28:55;;;;;;;;;;;;;;;3.87;100.00;102616.75;2088804;28;20779;-79
2022/11/13 03:30:15;;;;;;;;;;;;;;;3.87;100.00;102614.09;2089801;28;19917;-79
2022/11/13 03:31:35;;;;;;;;;;;;;;;3.83;100.00;102619.28;2092096;28;19924;-79
2022/11/13 03:32:56;;;;;;;;;;;;;;;3.84;100.00;102612.28;2089026;28;19917;-79
2022/11/13 03:34:16;;;;;;;;;;;;;;;3.82;100.00;102613.94;2089567;28;19917;-79
2022/11/13 03:35:37;;;;;;;;;;;;;;;3.78;100.00;102614.69;2089583;28;19920;-78
2022/11/13 03:37:04;;;;;;;;;;;;;;;3.76;100.00;102604.06;2088825;28;19980;-79
2022/11/13 03:38:25;;;;;;;;;;;;;;;3.75;100.00;102610.22;2089740;28;19976;-79
2022/11/13 03:39:45;;;;;;;;;;;;;;;3.77;100.00;102615.56;2089011;28;19921;-78
2022/11/13 03:41:06;;;;;;;;;;;;;;;3.79;100.00;102608.56;2089181;28;19925;-78
2022/11/13 03:42:26;;;;;;;;;;;;;;;3.75;100.00;102604.94;2089195;28;20834;-79
2022/11/13 03:43:46;;;;;;;;;;;;;;;3.79;100.00;102606.81;2088270;28;19956;-78
2022/11/13 03:45:06;;;;;;;;;;;;;;;3.81;100.00;102605.09;2088394;28;19976;-78
2022/11/13 03:46:27;;;;;;;;;;;;;;;3.86;100.00;102605.25;2089880;28;19921;-79
2022/11/13 03:47:47;;;;;;;;;;;;;;;3.86;100.00;102607.00;2089238;28;20043;-79
2022/11/13 03:49:08;;;;;;;;;;;;;;;3.87;100.00;102607.03;2089183;28;20047;-79
2022/11/13 03:50:28;;;;;;;;;;;;;;;3.86;100.00;102612.28;2088936;28;19976;-78
2022/11/13 03:51:48;;;;;;;;;;;;;;;3.86;100.00;102609.63;2088827;28;19921;-79
2022/11/13 03:53:08;;;;;;;;;;;;;;;3.85;100.00;102614.03;2088491;28;19921;-77
2022/11/13 03:54:29;;;;;;;;;;;;;;;3.83;100.00;102607.81;2089589;28;19976;-77
2022/11/13 03:55:49;;;;;;;;;;;;;;;3.81;100.00;102607.75;2088285;28;19925;-76
2022/11/13 03:57:09;;;;;;;;;;;;;;;3.85;100.00;102602.56;2088808;28;19921;-78
2022/11/13 03:58:29;;;;;;;;;;;;;;;3.87;100.00;102598.19;2088605;28;19956;-78
2022/11/13 03:59:49;;;;;;;;;;;;;;;3.86;100.00;102591.09;2088186;28;20798;-77
2022/11/13 04:01:09;;;;;;;;;;;;;;;3.83;100.00;102595.44;2089476;28;19964;-78
2022/11/13 04:02:29;;;;;;;;;;;;;;;3.84;100.00;102593.72;2089945;28;19921;-77
2022/11/13 04:03:49;;;;;;;;;;;;;;;3.83;100.00;102587.50;2089520;28;19925;-78
2022/11/13 04:05:10;;;;;;;;;;;;;;;3.84;100.00;102588.41;2088476;28;19931;-77
2022/11/13 04:06:30;;;;;;;;;;;;;;;3.84;100.00;102585.78;2089381;28;21074;-77
2022/11/13 04:07:50;;;;;;;;;;;;;;;3.86;100.00;102591.09;2089287;28;19968;-77
2022/11/13 04:09:11;;;;;;;;;;;;;;;3.90;100.00;102590.38;2089267;28;20055;-78
2022/11/13 04:10:31;;;;;;;;;;;;;;;3.94;100.00;102594.91;2089035;28;19921;-78
2022/11/13 04:11:51;;;;;;;;;;;;;;;3.94;100.00;102595.78;2088679;28;19921;-78
2022/11/13 04:13:11;;;;;;;;;;;;;;;3.94;100.00;102587.84;2088878;28;20804;-78
2022/11/13 04:14:34;;;;;;;;;;;;;;;4.01;100.00;102594.22;2089248;28;20078;-79
2022/11/13 04:15:54;;;;;;;;;;;;;;;3.96;100.00;102580.81;2088552;28;20810;-78
2022/11/13 04:17:14;;;;;;;;;;;;;;;3.95;100.00;102592.28;2088223;28;19925;-78
2022/11/13 04:18:35;;;;;;;;;;;;;;;3.94;100.00;102586.94;2088746;28;19917;-77
2022/11/13 04:19:55;;;;;;;;;;;;;;;3.92;100.00;102586.00;2088604;28;19960;-77
2022/11/13 04:21:15;;;;;;;;;;;;;;;3.92;100.00;102583.34;2088560;28;19925;-78
2022/11/13 04:22:35;;;;;;;;;;;;;;;3.90;100.00;102582.41;2088924;28;19921;-78
2022/11/13 04:23:55;;;;;;;;;;;;;;;3.88;100.00;102579.72;2088867;28;20794;-78
2022/11/13 04:25:16;;;;;;;;;;;;;;;3.92;100.00;102583.34;2088887;28;19917;-77
2022/11/13 04:26:36;;;;;;;;;;;;;;;3.88;100.00;102584.13;2088859;28;20055;-77
2022/11/13 04:27:56;;;;;;;;;;;;;;;3.87;100.00;102577.91;2089382;28;19917;-78
2022/11/13 04:29:16;;;;;;;;;;;;;;;3.92;100.00;102570.09;2087798;28;19921;-77
2022/11/13 04:30:37;;;;;;;;;;;;;;;3.89;100.00;102580.59;2088261;28;19917;-77
2022/11/13 04:31:57;;;;;;;;;;;;;;;3.88;100.00;102578.81;2089041;28;19918;-78
2022/11/13 04:33:17;;;;;;;;;;;;;;;3.89;100.00;102570.88;2088682;28;19920;-77
2022/11/13 04:34:37;;;;;;;;;;;;;;;3.86;100.00;102576.13;2089164;28;20091;-78
2022/11/13 04:35:57;;;;;;;;;;;;;;;3.88;100.00;102568.22;2089139;28;19965;-77
2022/11/13 04:37:17;;;;;;;;;;;;;;;3.85;100.00;102568.13;2088517;28;19921;-77
2022/11/13 04:38:37;;;;;;;;;;;;;;;3.82;100.00;102572.47;2089385;28;19917;-77
2022/11/13 04:39:57;;;;;;;;;;;;;;;3.82;100.00;102569.81;2088989;28;19921;-77
2022/11/13 04:42:56;;;;;;;;;;;;;;;3.81;100.00;102554.75;2089447;28;19924;-76
2022/11/13 04:44:16;;;;;;;;;;;;;;;3.85;100.00;102557.53;2088168;28;19921;-76
2022/11/13 04:45:38;;;;;;;;;;;;;;;3.80;100.00;102550.34;2089186;28;20896;-77
2022/11/13 04:47:01;;;;;;;;;;;;;;;3.78;100.00;102551.13;2088484;28;19921;-76
2022/11/13 04:48:21;;;;;;;;;;;;;;;3.76;100.00;102553.72;2089415;28;19921;-77
2022/11/13 04:49:41;;;;;;;;;;;;;;;3.75;100.00;102553.66;2088705;28;19917;-76
2022/11/13 04:51:01;;;;;;;;;;;;;;;3.75;100.00;102544.00;2089614;28;19921;-76
2022/11/13 04:52:21;;;;;;;;;;;;;;;3.71;100.00;102547.38;2089257;28;20067;-76
2022/11/13 04:53:41;;;;;;;;;;;;;;;3.68;100.00;102544.66;2089529;28;19983;-77
2022/11/13 04:55:02;;;;;;;;;;;;;;;3.66;100.00;102543.72;2089493;28;19925;-76
2022/11/13 04:56:22;;;;;;;;;;;;;;;3.73;100.00;102543.06;2087487;28;19928;-76
2022/11/13 04:57:43;;;;;;;;;;;;;;;3.73;100.00;102534.19;2088849;28;19924;-77
2022/11/13 04:59:02;;;;;;;;;;;;;;;3.67;100.00;102548.13;2088720;28;19921;-77
2022/11/13 05:00:23;;;;;;;;;;;;;;;3.69;100.00;102546.44;2088987;28;19968;-77
2022/11/13 05:01:43;;;;;;;;;;;;;;;3.71;100.00;102544.72;2089485;28;19924;-77
2022/11/13 05:03:02;;;;;;;;;;;;;;;3.68;100.00;102551.69;2090477;28;20023;-77
2022/11/13 05:04:23;;;;;;;;;;;;;;;3.73;100.00;102545.69;2089064;28;20718;-77
2022/11/13 05:05:43;;;;;;;;;;;;;;;3.66;100.00;102540.13;2088842;28;19917;-77
2022/11/13 05:07:03;;;;;;;;;;;;;;;3.62;100.00;102542.72;2089174;28;19931;-76
2022/11/13 05:08:23;;;;;;;;;;;;;;;3.59;100.00;102539.97;2089233;28;20063;-76
2022/11/13 05:09:43;;;;;;;;;;;;;;;3.66;100.00;102542.78;2088361;28;19917;-76
2022/11/13 05:11:04;;;;;;;;;;;;;;;3.63;100.00;102543.59;2088895;28;19960;-75
2022/11/13 05:12:24;;;;;;;;;;;;;;;3.61;100.00;102545.31;2089052;28;19921;-76
2022/11/13 05:13:44;;;;;;;;;;;;;;;3.61;100.00;102540.91;2088927;28;20039;-76
2022/11/13 05:15:05;;;;;;;;;;;;;;;3.57;100.00;102544.31;2088668;28;19921;-76
2022/11/13 05:16:26;;;;;;;;;;;;;;;3.56;100.00;102547.78;2089189;28;19925;-75
2022/11/13 05:17:48;;;;;;;;;;;;;;;3.60;100.00;102551.44;2088252;28;20003;-77
2022/11/13 05:19:08;;;;;;;;;;;;;;;3.61;100.00;102554.16;2088437;28;19917;-74
2022/11/13 05:20:28;;;;;;;;;;;;;;;3.65;100.00;102543.66;2088617;28;20778;-76
2022/11/13 05:21:48;;;;;;;;;;;;;;;3.60;100.00;102552.34;2088847;28;19925;-75
2022/11/13 05:23:08;;;;;;;;;;;;;;;3.57;100.00;102546.03;2088741;28;20750;-76
2022/11/13 05:24:29;;;;;;;;;;;;;;;3.56;100.00;102554.84;2088883;28;19917;-77
2022/11/13 05:25:49;;;;;;;;;;;;;;;3.53;100.00;102541.50;2088511;28;19925;-76
2022/11/13 05:27:09;;;;;;;;;;;;;;;3.55;100.00;102543.38;2088429;28;19921;-76
2022/11/13 05:28:37;;;;;;;;;;;;;;;3.56;100.00;102544.25;2089171;28;19956;-76
2022/11/13 05:29:57;;;;;;;;;;;;;;;3.50;100.00;102550.25;2089600;28;20872;-76
2022/11/13 05:31:17;;;;;;;;;;;;;;;3.51;100.00;102552.03;2089772;28;19917;-76
2022/11/13 05:32:37;;;;;;;;;;;;;;;3.51;100.00;102548.50;2090589;28;19921;-76
2022/11/13 05:34:02;;;;;;;;;;;;;;;3.48;100.00;102540.47;2091833;28;21211;-76
2022/11/13 05:35:24;;;;;;;;;;;;;;;3.49;100.00;102542.25;2090415;28;19921;-75
2022/11/13 05:36:44;;;;;;;;;;;;;;;3.51;100.00;102548.50;2090469;28;19921;-77
2022/11/13 05:38:04;;;;;;;;;;;;;;;3.62;100.00;102539.16;2089989;28;19932;-74
2022/11/13 05:39:25;;;;;;;;;;;;;;;3.51;100.00;102545.84;2090354;28;20770;-73
2022/11/13 05:40:45;;;;;;;;;;;;;;;3.49;100.00;102542.25;2089897;28;19921;-75
2022/11/13 05:42:05;;;;;;;;;;;;;;;3.54;100.00;102533.63;2090039;28;20814;-75
2022/11/13 05:43:25;;;;;;;;;;;;;;;3.49;100.00;102527.28;2090399;28;20699;-76
2022/11/13 05:44:46;;;;;;;;;;;;;;;3.48;100.00;102525.47;2089477;28;19917;-75
2022/11/13 05:46:11;;;;;;;;;;;;;;;3.47;100.00;102530.72;2089652;28;19921;-76
2022/11/13 05:47:32;;;;;;;;;;;;;;;3.44;100.00;102527.09;2090121;28;19921;-76
2022/11/13 05:48:57;;;;;;;;;;;;;;;3.43;100.00;102516.50;2090319;28;19921;-76
2022/11/13 05:50:19;;;;;;;;;;;;;;;3.43;100.00;102519.16;2089872;28;19917;-76
2022/11/13 05:51:39;;;;;;;;;;;;;;;3.47;100.00;102517.50;2090318;28;20919;-76
2022/11/13 05:52:59;;;;;;;;;;;;;;;3.48;100.00;102513.97;2090131;28;19968;-76
2022/11/13 05:54:20;;;;;;;;;;;;;;;3.46;100.00;102518.31;2090250;28;20822;-75
2022/11/13 05:55:40;;;;;;;;;;;;;;;3.44;100.00;102519.16;2089875;28;19971;-76
2022/11/13 05:57:00;;;;;;;;;;;;;;;3.43;100.00;102506.78;2090173;28;19921;-75
2022/11/13 05:58:20;;;;;;;;;;;;;;;3.41;100.00;102502.28;2090179;28;19972;-76
2022/11/13 05:59:40;;;;;;;;;;;;;;;3.39;100.00;102504.00;2089504;28;19924;-75
2022/11/13 06:01:12;;;;;;;;;;;;;;;3.40;100.00;102495.22;2089292;28;19921;-76
2022/11/13 06:02:34;;;;;;;;;;;;;;;3.38;100.00;102497.81;2090264;28;19917;-76
2022/11/13 06:03:55;;;;;;;;;;;;;;;3.39;100.00;102504.00;2092457;28;19917;-76
2022/11/13 06:05:16;;;;;;;;;;;;;;;3.40;100.00;102505.78;2090298;28;19917;-75
2022/11/13 06:06:36;;;;;;;;;;;;;;;3.39;100.00;102504.00;2089300;28;19925;-76
2022/11/13 06:07:56;;;;;;;;;;;;;;;3.35;100.00;102503.00;2090511;28;20731;-76
2022/11/13 06:09:16;;;;;;;;;;;;;;;3.36;100.00;102504.81;2089951;28;20055;-76
2022/11/13 06:10:36;;;;;;;;;;;;;;;3.37;100.00;102509.22;2090361;28;19921;-75
2022/11/13 06:11:59;;;;;;;;;;;;;;;3.34;100.00;102509.16;2089838;28;19925;-75
2022/11/13 06:13:19;;;;;;;;;;;;;;;3.33;100.00;102512.63;2089202;28;19932;-75
2022/11/13 06:14:40;;;;;;;;;;;;;;;3.34;100.00;102506.50;2089456;28;20031;-76
2022/11/13 06:16:05;;;;;;;;;;;;;;;3.32;100.00;102497.63;2089805;28;19929;-75
2022/11/13 06:17:25;;;;;;;;;;;;;;;3.32;100.00;102502.00;2088984;28;20825;-75
2022/11/13 06:18:47;;;;;;;;;;;;;;;3.27;100.00;102495.66;2091209;28;19921;-75
2022/11/13 06:20:08;;;;;;;;;;;;;;;3.27;100.00;102496.56;2089434;28;19932;-75
2022/11/13 06:21:30;;;;;;;;;;;;;;;3.28;100.00;102493.06;2089905;28;19917;-75
2022/11/13 06:22:51;;;;;;;;;;;;;;;3.27;100.00;102488.63;2090240;28;19917;-75
2022/11/13 06:24:12;;;;;;;;;;;;;;;3.21;100.00;102491.06;2089246;28;19925;-74
2022/11/13 06:25:32;;;;;;;;;;;;;;;3.19;100.00;102492.75;2090217;28;19976;-75
2022/11/13 06:26:52;;;;;;;;;;;;;;;3.14;100.00;102502.28;2090133;28;19925;-73
2022/11/13 06:28:12;;;;;;;;;;;;;;;3.09;100.00;102493.31;2089833;28;19921;-75
2022/11/13 06:29:32;;;;;;;;;;;;;;;3.02;100.00;102495.75;2089470;28;19913;-75
2022/11/13 06:30:52;;;;;;;;;;;;;;;2.99;100.00;102493.00;2090032;28;20801;-74
2022/11/13 06:32:12;;;;;;;;;;;;;;;3.01;100.00;102495.69;2089497;28;20027;-74
2022/11/13 06:33:33;;;;;;;;;;;;;;;2.96;100.00;102500.88;2089975;28;19917;-76
2022/11/13 06:34:53;;;;;;;;;;;;;;;2.94;100.00;102494.59;2091898;28;20698;-75
2022/11/13 06:36:26;;;;;;;;;;;;;;;2.93;100.00;102498.09;2089224;28;20766;-76
2022/11/13 06:37:46;;;;;;;;;;;;;;;2.92;100.00;102498.03;2089860;28;19929;-76
2022/11/13 06:39:08;;;;;;;;;;;;;;;2.91;100.00;102491.88;2089630;28;20782;-76
2022/11/13 06:40:28;;;;;;;;;;;;;;;2.90;100.00;102505.94;2087610;28;19956;-76
2022/11/13 06:41:48;;;;;;;;;;;;;;;2.90;100.00;102498.00;2089888;28;20822;-76
2022/11/13 06:43:08;;;;;;;;;;;;;;;2.97;100.00;102497.34;2089439;28;19921;-75
2022/11/13 06:44:28;;;;;;;;;;;;;;;3.00;100.00;102502.75;2088762;28;19960;-75
2022/11/13 06:45:48;;;;;;;;;;;;;;;3.02;100.00;102500.16;2089836;28;19975;-76
2022/11/13 06:47:08;;;;;;;;;;;;;;;2.98;100.00;102501.81;2088758;28;20055;-75
2022/11/13 06:48:29;;;;;;;;;;;;;;;2.97;100.00;102493.81;2089644;28;19925;-76
2022/11/13 06:49:50;;;;;;;;;;;;;;;2.96;100.00;102494.66;2089741;28;19925;-76
2022/11/13 06:51:18;;;;;;;;;;;;;;;3.00;100.00;102496.56;2089523;28;19925;-76
2022/11/13 06:52:38;;;;;;;;;;;;;;;3.03;100.00;102497.56;2089684;28;19959;-76
2022/11/13 06:53:58;;;;;;;;;;;;;;;3.06;100.00;102492.34;2089941;28;20778;-76
2022/11/13 06:55:19;;;;;;;;;;;;;;;3.06;100.00;102500.28;2088914;28;20683;-76
2022/11/13 06:56:44;;;;;;;;;;;;;;;3.10;100.00;102505.69;2089894;28;19916;-75
2022/11/13 06:58:04;;;;;;;;;;;;;;;3.15;100.00;102494.41;2089629;28;19920;-76
2022/11/13 06:59:24;;;;;;;;;;;;;;;3.15;100.00;102504.09;2088344;28;19921;-75